createdAt,value
2018-05-07T00:00:01.345Z,73.55
2018-05-07T00:01:01.937Z,77.76
2018-05-07T00:02:02.441Z,76.62
2018-05-07T00:03:03.009Z,78.14
2018-05-07T00:04:03.625Z,76.86
2018-05-07T00:05:04.157Z,76.77
2018-05-07T00:06:04.813Z,75.14
2018-05-07T00:07:05.305Z,76.77
2018-05-07T00:08:05.923Z,79.25
2018-05-07T00:09:06.457Z,79.87
2018-05-07T00:10:07.030Z,78.53
2018-05-07T00:11:07.634Z,80.82
2018-05-07T00:12:08.176Z,78.81
2018-05-07T00:13:08.748Z,79.77
2018-05-07T00:14:09.322Z,74.41
2018-05-07T00:15:09.894Z,79.77
2018-05-07T00:16:10.467Z,81.78
2018-05-07T00:17:11.040Z,80.54
2018-05-07T00:18:11.612Z,80.16
2018-05-07T00:19:12.185Z,78.43
2018-05-07T00:20:12.756Z,77.42
2018-05-07T00:21:13.328Z,75.41
2018-05-07T00:22:13.900Z,80.92
2018-05-07T00:23:14.474Z,76.33
2018-05-07T00:24:15.050Z,77.38
2018-05-07T00:25:15.619Z,71.45
2018-05-07T00:26:16.192Z,74.38
2018-05-07T00:27:16.786Z,74.66
2018-05-07T00:28:17.359Z,74.51
2018-05-07T00:29:17.912Z,75.27
2018-05-07T00:30:18.491Z,76.04
2018-05-07T00:31:19.060Z,74.16
2018-05-07T00:32:19.633Z,77.38
2018-05-07T00:33:20.253Z,77.38
2018-05-07T00:34:20.786Z,72.12
2018-05-07T00:35:21.355Z,74.04
2018-05-07T00:36:21.926Z,76.90
2018-05-07T00:37:22.500Z,73.36
2018-05-07T00:38:23.072Z,76.00
2018-05-07T00:39:23.644Z,74.09
2018-05-07T00:40:24.217Z,70.75
2018-05-07T00:41:24.789Z,69.50
2018-05-07T00:42:25.361Z,73.80
2018-05-07T00:43:25.935Z,71.22
2018-05-07T00:44:26.508Z,72.08
2018-05-07T00:45:27.085Z,70.56
2018-05-07T00:46:27.656Z,70.36
2018-05-07T00:47:28.230Z,69.31
2018-05-07T00:48:28.804Z,71.42
2018-05-07T00:49:29.386Z,68.45
2018-05-07T00:50:30.025Z,70.36
2018-05-07T00:51:30.536Z,67.11
2018-05-07T00:52:31.108Z,68.84
2018-05-07T00:53:31.683Z,71.22
2018-05-07T00:54:32.255Z,71.03
2018-05-07T00:55:32.830Z,69.56
2018-05-07T00:56:33.406Z,67.65
2018-05-07T00:57:33.975Z,70.33
2018-05-07T00:58:34.547Z,69.47
2018-05-07T00:59:35.123Z,70.42
2018-05-07T01:00:35.693Z,66.54
2018-05-07T01:01:36.265Z,72.05
2018-05-07T01:02:36.837Z,71.09
2018-05-07T01:03:37.408Z,68.55
2018-05-07T01:04:37.984Z,67.30
2018-05-07T01:05:38.551Z,66.83
2018-05-07T01:06:39.124Z,66.50
2018-05-07T01:07:39.697Z,61.22
2018-05-07T01:08:40.269Z,59.24
2018-05-07T01:09:40.841Z,62.78
2018-05-07T01:10:41.414Z,58.38
2018-05-07T01:11:41.984Z,57.33
2018-05-07T01:12:42.564Z,55.71
2018-05-07T01:13:43.131Z,56.76
2018-05-07T01:14:43.705Z,54.56
2018-05-07T01:15:44.314Z,59.05
2018-05-07T01:16:44.857Z,61.92
2018-05-07T01:17:45.437Z,64.12
2018-05-07T01:18:46.009Z,63.54
2018-05-07T01:19:46.583Z,62.11
2018-05-07T01:20:47.156Z,61.25
2018-05-07T01:21:47.730Z,59.72
2018-05-07T01:22:48.302Z,57.68
2018-05-07T01:23:48.876Z,58.95
2018-05-07T01:24:49.450Z,64.59
2018-05-07T01:25:50.024Z,56.28
2018-05-07T01:26:50.595Z,60.87
2018-05-07T01:27:51.177Z,61.82
2018-05-07T01:28:51.751Z,56.67
2018-05-07T01:29:52.322Z,60.58
2018-05-07T01:30:52.896Z,60.87
2018-05-07T01:31:53.467Z,55.61
2018-05-07T01:32:54.041Z,61.82
2018-05-07T01:33:54.614Z,61.16
2018-05-07T01:34:55.186Z,59.53
2018-05-07T01:35:55.770Z,54.08
2018-05-07T01:36:56.342Z,59.22
2018-05-07T01:37:56.920Z,51.57
2018-05-07T01:38:57.488Z,59.53
2018-05-07T01:39:58.063Z,52.08
2018-05-07T01:40:58.644Z,57.24
2018-05-07T01:41:59.218Z,53.86
2018-05-07T01:42:59.791Z,58.45
2018-05-07T01:44:00.364Z,57.97
2018-05-07T01:45:00.947Z,52.81
2018-05-07T01:46:01.520Z,54.34
2018-05-07T01:47:02.093Z,52.72
2018-05-07T01:48:02.667Z,56.35
2018-05-07T01:49:03.248Z,56.32
2018-05-07T01:50:03.822Z,55.55
2018-05-07T01:51:04.393Z,56.51
2018-05-07T01:52:04.963Z,54.50
2018-05-07T01:53:05.546Z,54.41
2018-05-07T01:54:06.119Z,55.46
2018-05-07T01:55:06.691Z,56.32
2018-05-07T01:56:07.263Z,57.85
2018-05-07T01:57:07.842Z,58.99
2018-05-07T01:58:08.409Z,54.99
2018-05-07T01:59:08.980Z,58.04
2018-05-07T02:00:09.551Z,49.85
2018-05-07T02:01:10.124Z,56.25
2018-05-07T02:02:10.699Z,52.34
2018-05-07T02:03:11.281Z,57.02
2018-05-07T02:04:11.851Z,49.76
2018-05-07T02:05:12.423Z,55.27
2018-05-07T02:06:12.996Z,56.80
2018-05-07T02:07:13.566Z,56.16
2018-05-07T02:08:14.140Z,54.44
2018-05-07T02:09:14.708Z,48.99
2018-05-07T02:10:15.282Z,56.60
2018-05-07T02:11:15.851Z,51.93
2018-05-07T02:12:16.424Z,49.18
2018-05-07T02:13:16.998Z,53.39
2018-05-07T02:14:17.568Z,57.18
2018-05-07T02:15:18.139Z,54.60
2018-05-07T02:16:18.718Z,52.69
2018-05-07T02:17:19.285Z,49.07
2018-05-07T02:18:19.858Z,49.07
2018-05-07T02:19:20.432Z,47.25
2018-05-07T02:20:21.005Z,49.64
2018-05-07T02:21:21.576Z,49.76
2018-05-07T02:22:22.147Z,56.32
2018-05-07T02:23:22.720Z,51.67
2018-05-07T02:24:23.292Z,56.16
2018-05-07T02:25:23.863Z,55.30
2018-05-07T02:26:24.434Z,56.82
2018-05-07T02:27:25.010Z,53.55
2018-05-07T02:28:25.575Z,57.28
2018-05-07T02:29:26.152Z,48.49
2018-05-07T02:30:26.720Z,53.81
2018-05-07T02:31:27.321Z,52.79
2018-05-07T02:32:27.862Z,57.43
2018-05-07T02:33:28.435Z,54.77
2018-05-07T02:34:29.005Z,53.91
2018-05-07T02:35:29.579Z,52.59
2018-05-07T02:36:30.160Z,52.40
2018-05-07T02:37:30.731Z,56.60
2018-05-07T02:38:31.303Z,52.48
2018-05-07T02:39:31.874Z,51.23
2018-05-07T02:40:32.447Z,50.57
2018-05-07T02:41:33.017Z,48.37
2018-05-07T02:42:33.588Z,50.28
2018-05-07T02:43:34.160Z,49.04
2018-05-07T02:44:34.730Z,53.43
2018-05-07T02:45:35.303Z,51.23
2018-05-07T02:46:35.884Z,54.10
2018-05-07T02:47:36.464Z,55.91
2018-05-07T02:48:37.036Z,54.19
2018-05-07T02:49:37.611Z,56.58
2018-05-07T02:50:38.182Z,50.49
2018-05-07T02:51:38.764Z,54.19
2018-05-07T02:52:39.334Z,47.03
2018-05-07T02:53:39.911Z,49.52
2018-05-07T02:54:40.478Z,48.16
2018-05-07T02:55:41.049Z,43.96
2018-05-07T02:56:41.621Z,44.74
2018-05-07T02:57:42.195Z,45.03
2018-05-07T02:58:42.766Z,50.95
2018-05-07T02:59:43.340Z,50.67
2018-05-07T03:00:43.911Z,47.58
2018-05-07T03:01:44.484Z,46.66
2018-05-07T03:02:45.055Z,46.01
2018-05-07T03:03:45.626Z,48.66
2018-05-07T03:04:46.196Z,45.22
2018-05-07T03:05:46.769Z,45.61
2018-05-07T03:06:47.339Z,49.16
2018-05-07T03:07:47.915Z,51.45
2018-05-07T03:08:48.482Z,52.22
2018-05-07T03:09:49.065Z,51.74
2018-05-07T03:10:49.645Z,58.87
2018-05-07T03:11:50.216Z,48.39
2018-05-07T03:12:50.809Z,56.10
2018-05-07T03:13:51.374Z,52.00
2018-05-07T03:14:51.953Z,51.23
2018-05-07T03:15:52.525Z,43.60
2018-05-07T03:16:53.098Z,47.13
2018-05-07T03:17:53.670Z,52.95
2018-05-07T03:18:54.243Z,53.24
2018-05-07T03:19:54.817Z,54.19
2018-05-07T03:20:55.397Z,47.23
2018-05-07T03:21:55.969Z,54.29
2018-05-07T03:22:56.540Z,46.37
2018-05-07T03:23:57.115Z,48.18
2018-05-07T03:24:57.685Z,49.11
2018-05-07T03:25:58.261Z,47.20
2018-05-07T03:26:58.828Z,47.68
2018-05-07T03:27:59.400Z,47.02
2018-05-07T03:28:59.975Z,49.40
2018-05-07T03:30:00.541Z,45.78
2018-05-07T03:31:01.112Z,43.58
2018-05-07T03:32:01.683Z,43.20
2018-05-07T03:33:02.254Z,50.35
2018-05-07T03:34:02.826Z,50.26
2018-05-07T03:35:03.394Z,48.54
2018-05-07T03:36:03.965Z,45.87
2018-05-07T03:37:04.536Z,49.49
2018-05-07T03:38:05.106Z,42.65
2018-05-07T03:39:05.680Z,45.29
2018-05-07T03:40:06.247Z,41.29
2018-05-07T03:41:06.818Z,47.13
2018-05-07T03:42:07.399Z,50.73
2018-05-07T03:43:07.981Z,47.78
2018-05-07T03:44:08.558Z,44.44
2018-05-07T03:45:09.138Z,48.35
2018-05-07T03:46:09.720Z,47.49
2018-05-07T03:47:10.294Z,44.92
2018-05-07T03:48:10.867Z,43.58
2018-05-07T03:49:11.439Z,46.06
2018-05-07T03:50:12.011Z,45.58
2018-05-07T03:51:12.584Z,43.10
2018-05-07T03:52:13.157Z,48.07
2018-05-07T03:53:13.732Z,46.92
2018-05-07T03:54:14.303Z,46.92
2018-05-07T03:55:14.876Z,48.54
2018-05-07T03:56:15.449Z,42.82
2018-05-07T03:57:16.021Z,49.40
2018-05-07T03:58:16.592Z,49.08
2018-05-07T03:59:17.165Z,43.39
2018-05-07T04:00:17.738Z,44.63
2018-05-07T04:01:18.311Z,45.87
2018-05-07T04:02:18.882Z,45.56
2018-05-07T04:03:19.456Z,44.80
2018-05-07T04:04:20.031Z,41.27
2018-05-07T04:05:20.599Z,44.63
2018-05-07T04:06:21.171Z,44.73
2018-05-07T04:07:21.747Z,45.56
2018-05-07T04:08:22.314Z,46.42
2018-05-07T04:09:22.885Z,42.70
2018-05-07T04:10:23.459Z,42.70
2018-05-07T04:11:24.032Z,42.70
2018-05-07T04:12:24.607Z,39.27
2018-05-07T04:13:25.177Z,41.65
2018-05-07T04:14:25.753Z,41.84
2018-05-07T04:15:26.323Z,42.70
2018-05-07T04:16:26.893Z,42.03
2018-05-07T04:17:27.464Z,40.22
2018-05-07T04:18:28.037Z,40.53
2018-05-07T04:19:28.613Z,46.44
2018-05-07T04:20:29.195Z,47.11
2018-05-07T04:21:29.771Z,49.21
2018-05-07T04:22:30.353Z,46.25
2018-05-07T04:23:30.973Z,48.35
2018-05-07T04:24:31.500Z,45.78
2018-05-07T04:25:32.073Z,48.35
2018-05-07T04:26:32.650Z,45.97
2018-05-07T04:27:33.219Z,46.84
2018-05-07T04:28:33.792Z,50.07
2018-05-07T04:29:34.365Z,51.68
2018-05-07T04:30:34.981Z,49.87
2018-05-07T04:31:35.511Z,51.21
2018-05-07T04:32:36.086Z,49.59
2018-05-07T04:33:36.663Z,47.23
2018-05-07T04:34:37.241Z,45.78
2018-05-07T04:35:37.817Z,49.02
2018-05-07T04:36:38.389Z,49.78
2018-05-07T04:37:38.972Z,46.08
2018-05-07T04:38:39.548Z,47.02
2018-05-07T04:39:40.130Z,47.68
2018-05-07T04:40:40.713Z,44.06
2018-05-07T04:41:41.287Z,42.91
2018-05-07T04:42:41.858Z,43.87
2018-05-07T04:43:42.442Z,48.37
2018-05-07T04:44:43.015Z,46.94
2018-05-07T04:45:43.589Z,44.65
2018-05-07T04:46:44.161Z,47.13
2018-05-07T04:47:44.737Z,44.46
2018-05-07T04:48:45.392Z,49.71
2018-05-07T04:49:45.885Z,50.47
2018-05-07T04:50:46.488Z,50.26
2018-05-07T04:51:47.043Z,45.87
2018-05-07T04:52:47.617Z,50.09
2018-05-07T04:53:48.190Z,52.03
2018-05-07T04:54:48.766Z,53.27
2018-05-07T04:55:49.343Z,54.86
2018-05-07T04:56:49.914Z,53.72
2018-05-07T04:57:50.487Z,49.73
2018-05-07T04:58:51.062Z,52.88
2018-05-07T04:59:51.648Z,50.78
2018-05-07T05:00:52.229Z,52.69
2018-05-07T05:01:52.804Z,54.72
2018-05-07T05:02:53.379Z,57.31
2018-05-07T05:03:53.953Z,53.39
2018-05-07T05:04:54.531Z,58.80
2018-05-07T05:05:55.102Z,55.94
2018-05-07T05:06:55.679Z,57.97
2018-05-07T05:07:56.263Z,58.51
2018-05-07T05:08:56.847Z,55.84
2018-05-07T05:09:57.423Z,51.07
2018-05-07T05:10:58.007Z,54.82
2018-05-07T05:11:58.580Z,58.07
2018-05-07T05:12:59.156Z,56.82
2018-05-07T05:13:59.740Z,56.45
2018-05-07T05:15:00.317Z,57.50
2018-05-07T05:16:00.892Z,54.44
2018-05-07T05:17:01.468Z,58.54
2018-05-07T05:18:02.041Z,56.95
2018-05-07T05:19:02.618Z,58.38
2018-05-07T05:20:03.191Z,58.38
2018-05-07T05:21:03.777Z,60.68
2018-05-07T05:22:04.341Z,61.92
2018-05-07T05:23:04.914Z,62.14
2018-05-07T05:24:05.490Z,67.21
2018-05-07T05:25:06.066Z,70.36
2018-05-07T05:26:06.641Z,68.45
2018-05-07T05:27:07.231Z,72.75
2018-05-07T05:28:07.812Z,68.16
2018-05-07T05:29:08.387Z,66.16
2018-05-07T05:30:08.961Z,68.84
2018-05-07T05:31:09.539Z,70.07
2018-05-07T05:32:10.113Z,68.93
2018-05-07T05:33:10.699Z,70.65
2018-05-07T05:34:11.272Z,66.63
2018-05-07T05:35:11.848Z,67.59
2018-05-07T05:36:12.424Z,69.98
2018-05-07T05:37:13.015Z,65.97
2018-05-07T05:38:13.591Z,70.30
2018-05-07T05:39:14.163Z,69.54
2018-05-07T05:40:14.738Z,73.65
2018-05-07T05:41:15.313Z,74.90
2018-05-07T05:42:15.887Z,77.92
2018-05-07T05:43:16.466Z,74.99
2018-05-07T05:44:17.050Z,77.86
2018-05-07T05:45:17.626Z,78.14
2018-05-07T05:46:18.207Z,77.48
2018-05-07T05:47:18.777Z,76.42
2018-05-07T05:48:19.354Z,75.56
2018-05-07T05:49:19.926Z,77.00
2018-05-07T05:50:20.521Z,78.43
2018-05-07T05:51:21.084Z,78.66
2018-05-07T05:52:21.654Z,78.66
2018-05-07T05:53:22.229Z,82.49
2018-05-07T05:54:22.804Z,81.34
2018-05-07T05:55:23.385Z,83.64
2018-05-07T05:56:24.032Z,81.15
2018-05-07T05:57:24.534Z,82.11
2018-05-07T05:58:25.112Z,87.18
2018-05-07T05:59:25.686Z,84.41
2018-05-07T06:00:26.273Z,83.45
2018-05-07T06:01:26.849Z,83.93
2018-05-07T06:02:27.425Z,85.69
2018-05-07T06:03:28.001Z,84.64
2018-05-07T06:04:28.579Z,86.36
2018-05-07T06:05:29.153Z,85.60
2018-05-07T06:06:29.731Z,85.60
2018-05-07T06:07:30.307Z,87.94
2018-05-07T06:08:30.883Z,87.84
2018-05-07T06:09:31.460Z,86.98
2018-05-07T06:10:32.034Z,86.98
2018-05-07T06:11:32.609Z,87.37
2018-05-07T06:12:33.186Z,88.80
2018-05-07T06:13:33.762Z,87.27
2018-05-07T06:14:34.363Z,86.60
2018-05-07T06:15:34.913Z,84.49
2018-05-07T06:16:35.490Z,87.60
2018-05-07T06:17:36.068Z,89.57
2018-05-07T06:18:36.653Z,86.83
2018-05-07T06:19:37.229Z,87.46
2018-05-07T06:20:37.809Z,87.08
2018-05-07T06:21:38.383Z,89.47
2018-05-07T06:22:38.958Z,89.23
2018-05-07T06:23:39.536Z,88.84
2018-05-07T06:24:40.112Z,89.04
2018-05-07T06:25:40.689Z,93.01
2018-05-07T06:26:41.265Z,90.14
2018-05-07T06:27:41.841Z,89.18
2018-05-07T06:28:42.418Z,89.94
2018-05-07T06:29:42.994Z,91.86
2018-05-07T06:30:43.573Z,91.38
2018-05-07T06:31:44.149Z,93.30
2018-05-07T06:32:44.726Z,93.25
2018-05-07T06:33:45.304Z,95.31
2018-05-07T06:34:45.882Z,95.12
2018-05-07T06:35:46.459Z,95.36
2018-05-07T06:36:47.036Z,95.07
2018-05-07T06:37:47.614Z,96.51
2018-05-07T06:38:48.193Z,14.60
2018-05-07T06:39:48.773Z,14.60
2018-05-07T06:40:49.346Z,14.60
2018-05-07T06:41:49.934Z,14.60
2018-05-07T06:42:50.510Z,14.60
2018-05-07T06:43:51.086Z,14.60
2018-05-07T06:44:51.666Z,14.60
2018-05-07T06:45:52.244Z,14.60
2018-05-07T06:46:52.820Z,14.60
2018-05-07T06:47:53.396Z,14.60
2018-05-07T06:48:53.975Z,14.60
2018-05-07T06:49:54.557Z,14.60
2018-05-07T06:50:55.132Z,14.60
2018-05-07T06:51:55.710Z,14.60
2018-05-07T06:52:56.287Z,14.60
2018-05-07T06:53:56.866Z,14.60
2018-05-07T06:54:57.450Z,14.60
2018-05-07T06:55:58.035Z,14.60
2018-05-07T06:56:58.613Z,14.60
2018-05-07T06:57:59.191Z,14.60
2018-05-07T06:58:59.768Z,14.60
2018-05-07T07:00:00.349Z,14.60
2018-05-07T07:01:00.924Z,14.60
2018-05-07T07:02:01.552Z,14.60
2018-05-07T07:03:02.215Z,14.60
2018-05-07T07:04:02.709Z,14.60
2018-05-07T07:05:03.286Z,14.60
2018-05-07T07:06:03.874Z,14.60
2018-05-07T07:07:04.461Z,14.60
2018-05-07T07:08:05.100Z,14.60
2018-05-07T07:09:05.623Z,14.60
2018-05-07T07:10:06.206Z,14.60
2018-05-07T07:11:06.794Z,14.60
2018-05-07T07:12:07.373Z,14.60
2018-05-07T07:13:07.951Z,14.60
2018-05-07T07:14:08.533Z,14.60
2018-05-07T07:15:09.109Z,14.60
2018-05-07T07:16:09.688Z,14.60
2018-05-07T07:17:10.268Z,14.60
2018-05-07T07:18:10.842Z,14.60
2018-05-07T07:19:11.422Z,14.60
2018-05-07T07:20:12.000Z,14.60
2018-05-07T07:21:12.578Z,14.60
2018-05-07T07:22:13.159Z,14.60
2018-05-07T07:23:13.735Z,14.60
2018-05-07T07:24:14.315Z,14.60
2018-05-07T07:25:14.899Z,14.60
2018-05-07T07:26:15.471Z,14.60
2018-05-07T07:27:16.061Z,14.60
2018-05-07T07:28:16.654Z,14.60
2018-05-07T07:29:17.228Z,14.60
2018-05-07T07:30:17.809Z,14.60
2018-05-07T07:31:18.387Z,14.60
2018-05-07T07:32:18.966Z,14.60
2018-05-07T07:33:19.555Z,14.60
2018-05-07T07:34:20.153Z,14.60
2018-05-07T07:35:20.729Z,14.60
2018-05-07T07:36:21.304Z,14.60
2018-05-07T07:37:21.887Z,14.60
2018-05-07T07:38:22.464Z,14.60
2018-05-07T07:39:23.048Z,14.60
2018-05-07T07:40:23.625Z,14.60
2018-05-07T07:41:24.214Z,14.60
2018-05-07T07:42:24.795Z,14.60
2018-05-07T07:43:25.385Z,14.60
2018-05-07T07:44:25.960Z,14.60
2018-05-07T07:45:26.537Z,14.60
2018-05-07T07:46:27.117Z,14.60
2018-05-07T07:47:27.694Z,14.60
2018-05-07T07:48:28.276Z,14.60
2018-05-07T07:49:28.855Z,14.60
2018-05-07T07:50:29.446Z,14.60
2018-05-07T07:51:30.027Z,14.60
2018-05-07T07:52:30.720Z,14.60
2018-05-07T07:53:31.221Z,14.60
2018-05-07T07:54:31.790Z,14.60
2018-05-07T07:55:32.381Z,14.60
2018-05-07T07:56:32.962Z,14.60
2018-05-07T07:57:33.540Z,14.60
2018-05-07T07:58:34.119Z,14.60
2018-05-07T07:59:34.699Z,14.60
2018-05-07T08:00:35.279Z,14.60
2018-05-07T08:01:35.931Z,14.60
2018-05-07T08:02:36.444Z,14.60
2018-05-07T08:03:37.023Z,14.60
2018-05-07T08:04:37.603Z,14.60
2018-05-07T08:05:38.194Z,14.60
2018-05-07T08:06:38.808Z,14.60
2018-05-07T08:07:39.353Z,14.60
2018-05-07T08:08:39.932Z,14.60
2018-05-07T08:09:40.510Z,14.60
2018-05-07T08:10:41.091Z,14.60
2018-05-07T08:11:41.670Z,14.60
2018-05-07T08:12:42.249Z,14.60
2018-05-07T08:13:42.833Z,14.60
2018-05-07T08:14:43.419Z,14.60
2018-05-07T08:15:43.999Z,14.60
2018-05-07T08:16:44.579Z,14.60
2018-05-07T08:17:45.158Z,14.60
2018-05-07T08:18:45.747Z,14.60
2018-05-07T08:19:46.325Z,14.60
2018-05-07T08:20:46.906Z,14.60
2018-05-07T08:21:47.496Z,14.60
2018-05-07T08:22:48.076Z,14.60
2018-05-07T08:23:48.655Z,14.60
2018-05-07T08:24:49.256Z,14.60
2018-05-07T08:25:49.828Z,14.60
2018-05-07T08:26:50.408Z,14.60
2018-05-07T08:27:50.999Z,14.60
2018-05-07T08:28:51.580Z,14.60
2018-05-07T08:29:52.158Z,14.60
2018-05-07T08:30:52.741Z,14.60
2018-05-07T08:31:53.318Z,14.60
2018-05-07T08:32:53.898Z,14.60
2018-05-07T08:33:54.480Z,14.60
2018-05-07T08:34:55.061Z,14.60
2018-05-07T08:35:55.640Z,14.60
2018-05-07T08:36:56.281Z,14.60
2018-05-07T08:37:56.863Z,14.60
2018-05-07T08:38:57.443Z,14.60
2018-05-07T08:39:58.058Z,14.60
2018-05-07T08:40:58.604Z,14.60
2018-05-07T08:41:59.191Z,14.60
2018-05-07T08:42:59.766Z,14.60
2018-05-07T08:44:00.376Z,14.60
2018-05-07T08:45:00.927Z,14.60
2018-05-07T08:46:01.515Z,14.60
2018-05-07T08:47:02.105Z,14.60
2018-05-07T08:48:02.687Z,14.60
2018-05-07T08:49:03.269Z,14.60
2018-05-07T08:50:03.847Z,14.60
2018-05-07T08:51:04.499Z,14.60
2018-05-07T08:52:05.010Z,14.60
2018-05-07T08:53:05.609Z,14.60
2018-05-07T08:54:06.174Z,14.60
2018-05-07T08:55:06.765Z,14.60
2018-05-07T08:56:07.348Z,14.60
2018-05-07T08:57:07.940Z,14.60
2018-05-07T08:58:08.546Z,14.60
2018-05-07T08:59:09.099Z,14.60
2018-05-07T09:00:09.680Z,14.60
2018-05-07T09:01:10.261Z,14.60
2018-05-07T09:02:10.845Z,14.60
2018-05-07T09:03:11.424Z,14.60
2018-05-07T09:04:12.004Z,14.60
2018-05-07T09:05:12.585Z,14.60
2018-05-07T09:06:13.168Z,14.60
2018-05-07T09:07:13.751Z,14.60
2018-05-07T09:08:14.328Z,14.60
2018-05-07T09:09:14.910Z,14.60
2018-05-07T09:10:15.491Z,14.60
2018-05-07T09:11:16.073Z,14.60
2018-05-07T09:12:16.653Z,14.60
2018-05-07T09:13:17.236Z,14.60
2018-05-07T09:14:17.819Z,14.60
2018-05-07T09:15:18.399Z,14.60
2018-05-07T09:16:18.980Z,14.60
2018-05-07T09:17:19.572Z,14.60
2018-05-07T09:18:20.163Z,14.60
2018-05-07T09:19:20.743Z,14.60
2018-05-07T09:20:21.324Z,14.60
2018-05-07T09:21:21.905Z,14.60
2018-05-07T09:22:22.487Z,14.60
2018-05-07T09:23:23.071Z,14.60
2018-05-07T09:24:23.663Z,14.60
2018-05-07T09:25:24.231Z,14.60
2018-05-07T09:26:24.811Z,14.60
2018-05-07T09:27:25.403Z,14.60
2018-05-07T09:28:25.982Z,14.60
2018-05-07T09:29:26.574Z,14.60
2018-05-07T09:30:27.154Z,14.60
2018-05-07T09:31:27.778Z,14.60
2018-05-07T09:32:28.316Z,14.60
2018-05-07T09:33:28.912Z,14.60
2018-05-07T09:34:29.489Z,14.60
2018-05-07T09:35:30.068Z,14.60
2018-05-07T09:36:30.650Z,14.60
2018-05-07T09:37:31.231Z,14.60
2018-05-07T09:38:31.863Z,14.60
2018-05-07T09:39:32.396Z,14.60
2018-05-07T09:40:32.985Z,14.60
2018-05-07T09:41:33.565Z,14.60
2018-05-07T09:42:34.184Z,14.60
2018-05-07T09:43:34.729Z,14.60
2018-05-07T09:44:35.320Z,14.60
2018-05-07T09:45:35.904Z,14.60
2018-05-07T09:46:36.486Z,14.60
2018-05-07T09:47:37.079Z,14.60
2018-05-07T09:48:37.659Z,14.60
2018-05-07T09:49:38.241Z,14.60
2018-05-07T09:50:38.822Z,14.60
2018-05-07T09:51:39.404Z,14.60
2018-05-07T09:52:39.986Z,14.60
2018-05-07T09:53:40.567Z,14.60
2018-05-07T09:54:41.147Z,14.60
2018-05-07T09:55:41.750Z,14.60
2018-05-07T09:56:42.402Z,14.60
2018-05-07T09:57:42.891Z,14.60
2018-05-07T09:58:43.472Z,14.60
2018-05-07T09:59:44.064Z,14.60
2018-05-07T10:00:44.646Z,14.60
2018-05-07T10:01:45.227Z,14.60
2018-05-07T10:02:45.807Z,14.60
2018-05-07T10:03:46.389Z,14.60
2018-05-07T10:04:46.970Z,14.60
2018-05-07T10:05:47.552Z,14.60
2018-05-07T10:06:48.134Z,14.60
2018-05-07T10:07:48.716Z,14.60
2018-05-07T10:08:49.297Z,14.60
2018-05-07T10:09:49.879Z,14.60
2018-05-07T10:10:50.461Z,14.60
2018-05-07T10:11:51.041Z,14.60
2018-05-07T10:12:51.624Z,14.60
2018-05-07T10:13:52.205Z,14.60
2018-05-07T10:14:52.785Z,14.60
2018-05-07T10:15:53.368Z,14.60
2018-05-07T10:16:53.949Z,14.60
2018-05-07T10:17:54.531Z,14.60
2018-05-07T10:18:55.114Z,14.60
2018-05-07T10:19:55.699Z,14.60
2018-05-07T10:20:56.276Z,14.60
2018-05-07T10:21:56.856Z,14.60
2018-05-07T10:22:57.448Z,14.60
2018-05-07T10:23:58.033Z,14.60
2018-05-07T10:24:58.611Z,14.60
2018-05-07T10:25:59.194Z,14.60
2018-05-07T10:26:59.775Z,14.60
2018-05-07T10:28:00.355Z,14.60
2018-05-07T10:29:00.936Z,14.60
2018-05-07T10:30:01.536Z,14.60
2018-05-07T10:31:02.122Z,14.60
2018-05-07T10:32:02.700Z,14.60
2018-05-07T10:33:03.282Z,14.60
2018-05-07T10:34:03.863Z,14.60
2018-05-07T10:35:04.455Z,14.60
2018-05-07T10:36:05.036Z,14.60
2018-05-07T10:37:05.616Z,14.60
2018-05-07T10:38:06.198Z,14.60
2018-05-07T10:39:06.781Z,14.60
2018-05-07T10:40:07.363Z,14.60
2018-05-07T10:41:07.944Z,14.60
2018-05-07T10:42:08.525Z,14.60
2018-05-07T10:43:09.108Z,14.60
2018-05-07T10:44:09.690Z,14.60
2018-05-07T10:45:10.272Z,14.60
2018-05-07T10:46:10.853Z,14.60
2018-05-07T10:47:11.440Z,14.60
2018-05-07T10:48:12.029Z,14.60
2018-05-07T10:49:12.612Z,14.60
2018-05-07T10:50:13.193Z,14.60
2018-05-07T10:51:13.775Z,14.60
2018-05-07T10:52:14.358Z,14.60
2018-05-07T10:53:14.941Z,14.60
2018-05-07T10:54:15.520Z,14.60
2018-05-07T10:55:16.110Z,14.60
2018-05-07T10:56:16.779Z,14.60
2018-05-07T10:57:17.274Z,14.60
2018-05-07T10:58:17.857Z,14.60
2018-05-07T10:59:18.441Z,14.60
2018-05-07T11:00:19.019Z,14.60
2018-05-07T11:01:19.602Z,14.60
2018-05-07T11:02:20.183Z,14.60
2018-05-07T11:03:20.765Z,14.60
2018-05-07T11:04:21.347Z,14.60
2018-05-07T11:05:21.928Z,14.60
2018-05-07T11:06:22.512Z,14.60
2018-05-07T11:07:23.114Z,14.60
2018-05-07T11:08:23.687Z,14.60
2018-05-07T11:09:24.277Z,14.60
2018-05-07T11:10:24.862Z,14.60
2018-05-07T11:11:25.443Z,14.60
2018-05-07T11:12:26.026Z,14.60
2018-05-07T11:13:26.605Z,14.60
2018-05-07T11:14:27.185Z,14.60
2018-05-07T11:15:27.769Z,14.60
2018-05-07T11:16:28.350Z,14.60
2018-05-07T11:17:28.932Z,14.60
2018-05-07T11:18:29.513Z,14.60
2018-05-07T11:19:30.094Z,14.60
2018-05-07T11:20:30.677Z,14.60
2018-05-07T11:21:31.259Z,14.60
2018-05-07T11:22:31.841Z,14.60
2018-05-07T11:23:32.424Z,14.60
2018-05-07T11:24:33.002Z,14.60
2018-05-07T11:25:33.585Z,14.60
2018-05-07T11:26:34.167Z,14.60
2018-05-07T11:27:34.750Z,14.60
2018-05-07T11:28:35.332Z,14.60
2018-05-07T11:29:35.914Z,14.60
2018-05-07T11:30:36.499Z,14.60
2018-05-07T11:31:37.081Z,14.60
2018-05-07T11:32:37.663Z,14.60
2018-05-07T11:33:38.247Z,14.60
2018-05-07T11:34:38.829Z,14.60
2018-05-07T11:35:39.409Z,14.60
2018-05-07T11:36:39.992Z,14.60
2018-05-07T11:37:40.572Z,14.60
2018-05-07T11:38:41.154Z,14.60
2018-05-07T11:39:41.737Z,14.60
2018-05-07T11:40:42.345Z,14.60
2018-05-07T11:41:42.901Z,14.60
2018-05-07T11:42:43.484Z,14.60
2018-05-07T11:43:44.067Z,14.60
2018-05-07T11:44:44.649Z,14.60
2018-05-07T11:45:45.230Z,14.60
2018-05-07T11:46:45.811Z,14.60
2018-05-07T11:47:46.469Z,14.60
2018-05-07T11:48:46.985Z,14.60
2018-05-07T11:49:47.567Z,14.60
2018-05-07T11:50:48.149Z,14.60
2018-05-07T11:51:48.734Z,14.60
2018-05-07T11:52:49.315Z,14.60
2018-05-07T11:53:49.897Z,14.60
2018-05-07T11:54:50.480Z,14.60
2018-05-07T11:55:51.062Z,14.60
2018-05-07T11:56:51.644Z,14.60
2018-05-07T11:57:52.226Z,14.60
2018-05-07T11:58:52.808Z,14.60
2018-05-07T11:59:53.391Z,14.60
2018-05-07T12:00:53.973Z,14.60
2018-05-07T12:01:54.554Z,14.60
2018-05-07T12:02:55.135Z,14.60
2018-05-07T12:03:55.718Z,14.60
2018-05-07T12:04:56.311Z,14.60
2018-05-07T12:05:56.892Z,14.60
2018-05-07T12:06:57.486Z,14.60
2018-05-07T12:07:58.068Z,14.60
2018-05-07T12:08:58.658Z,14.60
2018-05-07T12:09:59.238Z,14.60
2018-05-07T12:10:59.825Z,14.60
2018-05-07T12:12:00.408Z,14.60
2018-05-07T12:13:00.989Z,14.60
2018-05-07T12:14:01.570Z,14.60
2018-05-07T12:15:02.152Z,14.60
2018-05-07T12:16:02.837Z,14.60
2018-05-07T12:17:03.323Z,14.60
2018-05-07T12:18:03.904Z,14.60
2018-05-07T12:19:04.487Z,14.60
2018-05-07T12:20:05.071Z,14.60
2018-05-07T12:21:05.652Z,14.60
2018-05-07T12:22:06.234Z,14.60
2018-05-07T12:23:06.894Z,14.60
2018-05-07T12:24:07.406Z,14.60
2018-05-07T12:25:07.988Z,14.60
2018-05-07T12:26:08.582Z,14.60
2018-05-07T12:27:09.169Z,14.60
2018-05-07T12:28:09.757Z,14.60
2018-05-07T12:29:10.345Z,14.60
2018-05-07T12:30:10.927Z,14.60
2018-05-07T12:31:11.521Z,14.60
2018-05-07T12:32:12.094Z,14.60
2018-05-07T12:33:12.679Z,14.60
2018-05-07T12:34:13.256Z,14.60
2018-05-07T12:35:13.838Z,14.60
2018-05-07T12:36:14.422Z,14.60
2018-05-07T12:37:15.005Z,14.60
2018-05-07T12:38:15.587Z,14.60
2018-05-07T12:39:16.172Z,14.60
2018-05-07T12:40:16.763Z,14.60
2018-05-07T12:41:17.356Z,14.60
2018-05-07T12:42:17.937Z,14.60
2018-05-07T12:43:18.521Z,14.60
2018-05-07T12:44:19.112Z,14.60
2018-05-07T12:45:19.694Z,14.60
2018-05-07T12:46:20.276Z,14.60
2018-05-07T12:47:20.858Z,14.60
2018-05-07T12:48:21.442Z,14.60
2018-05-07T12:49:22.026Z,14.60
2018-05-07T12:50:22.608Z,14.60
2018-05-07T12:51:23.190Z,14.60
2018-05-07T12:52:23.854Z,14.60
2018-05-07T12:53:24.357Z,14.60
2018-05-07T12:54:24.946Z,14.60
2018-05-07T12:55:25.531Z,14.60
2018-05-07T12:56:26.111Z,14.60
2018-05-07T12:57:26.695Z,14.60
2018-05-07T12:58:27.277Z,14.60
2018-05-07T12:59:27.861Z,14.60